sensor_id;sensor_type;location;lat;lon;timestamp;P1;durP1;ratioP1;P2;durP2;ratioP2
13795;SDS011;40911;51.552;9.874;2022-07-05T00:04:03;2.80;;;1.90;;
13795;SDS011;40911;51.552;9.874;2022-07-05T00:06:25;2.58;;;1.88;;
13795;SDS011;40911;51.552;9.874;2022-07-05T00:08:46;1.92;;;1.73;;
13795;SDS011;40911;51.552;9.874;2022-07-05T00:11:08;2.80;;;2.00;;
13795;SDS011;40911;51.552;9.874;2022-07-05T00:13:30;3.35;;;1.95;;
13795;SDS011;40911;51.552;9.874;2022-07-05T00:18:13;4.55;;;2.00;;
13795;SDS011;40911;51.552;9.874;2022-07-05T00:20:36;3.25;;;1.90;;
13795;SDS011;40911;51.552;9.874;2022-07-05T00:22:58;1.98;;;1.77;;
13795;SDS011;40911;51.552;9.874;2022-07-05T00:27:41;5.55;;;1.90;;
13795;SDS011;40911;51.552;9.874;2022-07-05T00:30:03;4.07;;;2.22;;
13795;SDS011;40911;51.552;9.874;2022-07-05T00:32:26;2.67;;;2.00;;
13795;SDS011;40911;51.552;9.874;2022-07-05T00:34:47;3.05;;;1.90;;
13795;SDS011;40911;51.552;9.874;2022-07-05T00:37:10;3.90;;;2.20;;
13795;SDS011;40911;51.552;9.874;2022-07-05T00:39:32;2.53;;;2.00;;
13795;SDS011;40911;51.552;9.874;2022-07-05T00:41:53;4.85;;;2.08;;
13795;SDS011;40911;51.552;9.874;2022-07-05T00:44:15;5.50;;;2.10;;
13795;SDS011;40911;51.552;9.874;2022-07-05T00:51:21;3.05;;;1.98;;
13795;SDS011;40911;51.552;9.874;2022-07-05T00:53:44;3.47;;;2.00;;
13795;SDS011;40911;51.552;9.874;2022-07-05T00:56:06;2.42;;;2.00;;
13795;SDS011;40911;51.552;9.874;2022-07-05T01:00:50;2.00;;;1.90;;
13795;SDS011;40911;51.552;9.874;2022-07-05T01:03:12;4.55;;;2.22;;
13795;SDS011;40911;51.552;9.874;2022-07-05T01:05:34;8.18;;;2.13;;
13795;SDS011;40911;51.552;9.874;2022-07-05T01:07:56;2.60;;;2.20;;
13795;SDS011;40911;51.552;9.874;2022-07-05T01:10:21;2.30;;;2.10;;
13795;SDS011;40911;51.552;9.874;2022-07-05T01:12:43;2.30;;;2.10;;
13795;SDS011;40911;51.552;9.874;2022-07-05T01:17:27;4.47;;;2.20;;
13795;SDS011;40911;51.552;9.874;2022-07-05T01:19:49;3.28;;;2.15;;
13795;SDS011;40911;51.552;9.874;2022-07-05T01:22:14;2.20;;;2.00;;
13795;SDS011;40911;51.552;9.874;2022-07-05T01:24:40;2.72;;;2.13;;
13795;SDS011;40911;51.552;9.874;2022-07-05T01:27:03;5.18;;;2.35;;
13795;SDS011;40911;51.552;9.874;2022-07-05T01:29:26;2.65;;;2.00;;
13795;SDS011;40911;51.552;9.874;2022-07-05T01:31:48;2.85;;;2.33;;
13795;SDS011;40911;51.552;9.874;2022-07-05T01:34:10;2.05;;;1.88;;
13795;SDS011;40911;51.552;9.874;2022-07-05T01:36:31;3.97;;;2.30;;
13795;SDS011;40911;51.552;9.874;2022-07-05T01:38:54;4.15;;;2.10;;
13795;SDS011;40911;51.552;9.874;2022-07-05T01:41:17;3.05;;;1.92;;
13795;SDS011;40911;51.552;9.874;2022-07-05T01:43:38;4.45;;;2.00;;
13795;SDS011;40911;51.552;9.874;2022-07-05T01:46:00;2.80;;;2.00;;
13795;SDS011;40911;51.552;9.874;2022-07-05T01:48:23;3.72;;;2.30;;
13795;SDS011;40911;51.552;9.874;2022-07-05T01:50:48;3.25;;;2.33;;
13795;SDS011;40911;51.552;9.874;2022-07-05T01:53:14;4.07;;;2.10;;
13795;SDS011;40911;51.552;9.874;2022-07-05T01:55:38;3.28;;;2.28;;
13795;SDS011;40911;51.552;9.874;2022-07-05T01:58:02;6.35;;;2.40;;
13795;SDS011;40911;51.552;9.874;2022-07-05T02:00:23;3.50;;;2.38;;
13795;SDS011;40911;51.552;9.874;2022-07-05T02:02:45;5.18;;;2.35;;
13795;SDS011;40911;51.552;9.874;2022-07-05T02:05:08;2.95;;;2.30;;
13795;SDS011;40911;51.552;9.874;2022-07-05T02:09:51;3.92;;;2.08;;
13795;SDS011;40911;51.552;9.874;2022-07-05T02:12:12;2.13;;;2.00;;
13795;SDS011;40911;51.552;9.874;2022-07-05T02:14:35;5.97;;;2.42;;
13795;SDS011;40911;51.552;9.874;2022-07-05T02:16:57;3.88;;;2.10;;
13795;SDS011;40911;51.552;9.874;2022-07-05T02:21:40;3.15;;;2.40;;
13795;SDS011;40911;51.552;9.874;2022-07-05T02:26:23;4.90;;;2.33;;
13795;SDS011;40911;51.552;9.874;2022-07-05T02:28:45;2.58;;;2.13;;
13795;SDS011;40911;51.552;9.874;2022-07-05T02:31:08;2.40;;;2.20;;
13795;SDS011;40911;51.552;9.874;2022-07-05T02:33:30;2.83;;;2.10;;
13795;SDS011;40911;51.552;9.874;2022-07-05T02:35:52;3.78;;;2.30;;
13795;SDS011;40911;51.552;9.874;2022-07-05T02:38:13;2.30;;;2.10;;
13795;SDS011;40911;51.552;9.874;2022-07-05T02:40:35;5.10;;;2.40;;
13795;SDS011;40911;51.552;9.874;2022-07-05T02:42:56;5.95;;;2.50;;
13795;SDS011;40911;51.552;9.874;2022-07-05T02:45:18;3.28;;;2.33;;
13795;SDS011;40911;51.552;9.874;2022-07-05T02:50:03;5.35;;;2.45;;
13795;SDS011;40911;51.552;9.874;2022-07-05T02:52:25;4.65;;;2.60;;
13795;SDS011;40911;51.552;9.874;2022-07-05T02:54:47;3.95;;;2.33;;
13795;SDS011;40911;51.552;9.874;2022-07-05T02:57:08;3.40;;;2.40;;
13795;SDS011;40911;51.552;9.874;2022-07-05T02:59:30;5.50;;;2.90;;
13795;SDS011;40911;51.552;9.874;2022-07-05T03:01:52;3.00;;;2.28;;
13795;SDS011;40911;51.552;9.874;2022-07-05T03:04:15;2.60;;;2.40;;
13795;SDS011;40911;51.552;9.874;2022-07-05T03:06:36;3.63;;;2.75;;
13795;SDS011;40911;51.552;9.874;2022-07-05T03:08:58;3.95;;;2.72;;
13795;SDS011;40911;51.552;9.874;2022-07-05T03:11:20;2.80;;;2.50;;
13795;SDS011;40911;51.552;9.874;2022-07-05T03:16:03;3.60;;;2.90;;
13795;SDS011;40911;51.552;9.874;2022-07-05T03:18:25;2.90;;;2.70;;
13795;SDS011;40911;51.552;9.874;2022-07-05T03:23:10;3.30;;;2.35;;
13795;SDS011;40911;51.552;9.874;2022-07-05T03:25:32;4.50;;;2.65;;
13795;SDS011;40911;51.552;9.874;2022-07-05T03:27:54;2.72;;;2.50;;
13795;SDS011;40911;51.552;9.874;2022-07-05T03:30:15;2.80;;;2.40;;
13795;SDS011;40911;51.552;9.874;2022-07-05T03:32:37;2.70;;;2.50;;
13795;SDS011;40911;51.552;9.874;2022-07-05T03:34:58;4.82;;;2.35;;
13795;SDS011;40911;51.552;9.874;2022-07-05T03:37:21;3.17;;;2.38;;
13795;SDS011;40911;51.552;9.874;2022-07-05T03:39:43;3.45;;;2.40;;
13795;SDS011;40911;51.552;9.874;2022-07-05T03:42:05;3.15;;;2.53;;
13795;SDS011;40911;51.552;9.874;2022-07-05T03:44:27;3.65;;;2.50;;
13795;SDS011;40911;51.552;9.874;2022-07-05T03:46:51;2.30;;;2.10;;
13795;SDS011;40911;51.552;9.874;2022-07-05T03:49:13;3.83;;;2.22;;
13795;SDS011;40911;51.552;9.874;2022-07-05T03:51:35;3.40;;;2.35;;
13795;SDS011;40911;51.552;9.874;2022-07-05T03:53:58;3.50;;;2.45;;
13795;SDS011;40911;51.552;9.874;2022-07-05T03:56:20;2.85;;;2.40;;
13795;SDS011;40911;51.552;9.874;2022-07-05T03:58:43;2.60;;;2.30;;
13795;SDS011;40911;51.552;9.874;2022-07-05T04:01:04;4.00;;;2.63;;
13795;SDS011;40911;51.552;9.874;2022-07-05T04:03:26;4.35;;;2.72;;
13795;SDS011;40911;51.552;9.874;2022-07-05T04:05:47;3.40;;;2.65;;
13795;SDS011;40911;51.552;9.874;2022-07-05T04:08:09;2.65;;;2.35;;
13795;SDS011;40911;51.552;9.874;2022-07-05T04:10:32;3.05;;;2.40;;
13795;SDS011;40911;51.552;9.874;2022-07-05T04:12:54;3.28;;;2.50;;
13795;SDS011;40911;51.552;9.874;2022-07-05T04:15:15;3.75;;;2.67;;
13795;SDS011;40911;51.552;9.874;2022-07-05T04:17:45;2.85;;;2.55;;
13795;SDS011;40911;51.552;9.874;2022-07-05T04:20:08;2.72;;;2.42;;
13795;SDS011;40911;51.552;9.874;2022-07-05T04:22:30;3.03;;;2.70;;
13795;SDS011;40911;51.552;9.874;2022-07-05T04:24:51;5.25;;;2.55;;
13795;SDS011;40911;51.552;9.874;2022-07-05T04:27:32;5.25;;;2.60;;
13795;SDS011;40911;51.552;9.874;2022-07-05T04:29:53;3.58;;;2.45;;
13795;SDS011;40911;51.552;9.874;2022-07-05T04:32:15;3.30;;;3.00;;
13795;SDS011;40911;51.552;9.874;2022-07-05T04:36:58;4.25;;;3.20;;
13795;SDS011;40911;51.552;9.874;2022-07-05T04:39:20;4.47;;;3.70;;
13795;SDS011;40911;51.552;9.874;2022-07-05T04:41:41;4.30;;;3.22;;
13795;SDS011;40911;51.552;9.874;2022-07-05T04:44:04;3.95;;;3.30;;
13795;SDS011;40911;51.552;9.874;2022-07-05T04:46:26;6.40;;;3.20;;
13795;SDS011;40911;51.552;9.874;2022-07-05T04:48:48;5.70;;;3.85;;
13795;SDS011;40911;51.552;9.874;2022-07-05T04:51:09;8.52;;;3.70;;
13795;SDS011;40911;51.552;9.874;2022-07-05T04:53:31;5.55;;;3.67;;
13795;SDS011;40911;51.552;9.874;2022-07-05T04:55:52;3.60;;;3.28;;
13795;SDS011;40911;51.552;9.874;2022-07-05T04:58:14;5.53;;;3.50;;
13795;SDS011;40911;51.552;9.874;2022-07-05T05:00:37;4.72;;;3.50;;
13795;SDS011;40911;51.552;9.874;2022-07-05T05:02:59;3.75;;;3.25;;
13795;SDS011;40911;51.552;9.874;2022-07-05T05:05:20;6.60;;;3.13;;
13795;SDS011;40911;51.552;9.874;2022-07-05T05:07:42;5.22;;;3.55;;
13795;SDS011;40911;51.552;9.874;2022-07-05T05:10:05;6.32;;;3.17;;
13795;SDS011;40911;51.552;9.874;2022-07-05T05:12:27;5.70;;;3.85;;
13795;SDS011;40911;51.552;9.874;2022-07-05T05:14:49;6.40;;;4.00;;
13795;SDS011;40911;51.552;9.874;2022-07-05T05:19:34;5.18;;;3.97;;
13795;SDS011;40911;51.552;9.874;2022-07-05T05:21:55;6.55;;;3.75;;
13795;SDS011;40911;51.552;9.874;2022-07-05T05:24:17;6.57;;;3.60;;
13795;SDS011;40911;51.552;9.874;2022-07-05T05:26:38;4.90;;;3.60;;
13795;SDS011;40911;51.552;9.874;2022-07-05T05:29:00;6.70;;;3.70;;
13795;SDS011;40911;51.552;9.874;2022-07-05T05:33:44;6.65;;;3.53;;
13795;SDS011;40911;51.552;9.874;2022-07-05T05:36:06;4.95;;;3.40;;
13795;SDS011;40911;51.552;9.874;2022-07-05T05:38:28;3.45;;;2.85;;
13795;SDS011;40911;51.552;9.874;2022-07-05T05:43:11;5.00;;;4.60;;
13795;SDS011;40911;51.552;9.874;2022-07-05T05:45:33;5.82;;;2.90;;
13795;SDS011;40911;51.552;9.874;2022-07-05T05:47:55;4.53;;;2.30;;
13795;SDS011;40911;51.552;9.874;2022-07-05T05:50:19;10.13;;;2.97;;
13795;SDS011;40911;51.552;9.874;2022-07-05T05:52:41;5.75;;;2.90;;
13795;SDS011;40911;51.552;9.874;2022-07-05T05:55:03;4.18;;;2.45;;
13795;SDS011;40911;51.552;9.874;2022-07-05T05:57:26;4.63;;;2.70;;
13795;SDS011;40911;51.552;9.874;2022-07-05T05:59:47;6.70;;;2.72;;
13795;SDS011;40911;51.552;9.874;2022-07-05T06:04:30;6.60;;;2.92;;
13795;SDS011;40911;51.552;9.874;2022-07-05T06:09:15;7.30;;;3.13;;
13795;SDS011;40911;51.552;9.874;2022-07-05T06:11:36;4.68;;;2.90;;
13795;SDS011;40911;51.552;9.874;2022-07-05T06:13:58;9.93;;;2.92;;
13795;SDS011;40911;51.552;9.874;2022-07-05T06:18:41;5.75;;;2.90;;
13795;SDS011;40911;51.552;9.874;2022-07-05T06:23:25;7.28;;;2.67;;
13795;SDS011;40911;51.552;9.874;2022-07-05T06:25:47;5.47;;;2.72;;
13795;SDS011;40911;51.552;9.874;2022-07-05T06:28:08;5.20;;;2.75;;
13795;SDS011;40911;51.552;9.874;2022-07-05T06:30:31;7.80;;;2.70;;
13795;SDS011;40911;51.552;9.874;2022-07-05T06:32:53;6.70;;;2.53;;
13795;SDS011;40911;51.552;9.874;2022-07-05T06:35:15;5.47;;;2.72;;
13795;SDS011;40911;51.552;9.874;2022-07-05T06:37:41;6.18;;;2.63;;
13795;SDS011;40911;51.552;9.874;2022-07-05T06:40:06;6.20;;;2.67;;
13795;SDS011;40911;51.552;9.874;2022-07-05T06:42:29;5.60;;;2.30;;
13795;SDS011;40911;51.552;9.874;2022-07-05T06:44:51;7.22;;;2.88;;
13795;SDS011;40911;51.552;9.874;2022-07-05T06:49:36;6.97;;;2.90;;
13795;SDS011;40911;51.552;9.874;2022-07-05T06:54:19;6.65;;;2.65;;
13795;SDS011;40911;51.552;9.874;2022-07-05T06:59:03;13.38;;;2.63;;
13795;SDS011;40911;51.552;9.874;2022-07-05T07:03:46;6.68;;;2.10;;
13795;SDS011;40911;51.552;9.874;2022-07-05T07:08:29;8.98;;;2.78;;
13795;SDS011;40911;51.552;9.874;2022-07-05T07:11:09;10.07;;;2.17;;
13795;SDS011;40911;51.552;9.874;2022-07-05T07:15:53;3.88;;;2.15;;
13795;SDS011;40911;51.552;9.874;2022-07-05T07:20:36;6.50;;;2.10;;
13795;SDS011;40911;51.552;9.874;2022-07-05T07:25:19;4.75;;;2.30;;
13795;SDS011;40911;51.552;9.874;2022-07-05T07:27:43;5.70;;;2.30;;
13795;SDS011;40911;51.552;9.874;2022-07-05T07:30:08;6.55;;;2.08;;
13795;SDS011;40911;51.552;9.874;2022-07-05T07:32:30;9.23;;;1.90;;
13795;SDS011;40911;51.552;9.874;2022-07-05T07:37:13;8.27;;;1.92;;
13795;SDS011;40911;51.552;9.874;2022-07-05T07:39:35;10.65;;;2.05;;
13795;SDS011;40911;51.552;9.874;2022-07-05T07:44:18;5.95;;;1.90;;
13795;SDS011;40911;51.552;9.874;2022-07-05T07:46:41;5.75;;;1.90;;
13795;SDS011;40911;51.552;9.874;2022-07-05T07:49:03;5.57;;;2.10;;
13795;SDS011;40911;51.552;9.874;2022-07-05T07:53:47;4.57;;;3.05;;
13795;SDS011;40911;51.552;9.874;2022-07-05T07:58:30;4.40;;;1.70;;
13795;SDS011;40911;51.552;9.874;2022-07-05T08:03:14;5.43;;;1.88;;
13795;SDS011;40911;51.552;9.874;2022-07-05T08:05:36;4.93;;;1.80;;
13795;SDS011;40911;51.552;9.874;2022-07-05T08:10:19;4.78;;;1.75;;
13795;SDS011;40911;51.552;9.874;2022-07-05T08:12:40;4.32;;;1.52;;
13795;SDS011;40911;51.552;9.874;2022-07-05T08:15:02;4.63;;;1.60;;
13795;SDS011;40911;51.552;9.874;2022-07-05T08:17:24;2.22;;;1.65;;
13795;SDS011;40911;51.552;9.874;2022-07-05T08:19:47;4.43;;;1.63;;
13795;SDS011;40911;51.552;9.874;2022-07-05T08:22:26;7.82;;;1.80;;
13795;SDS011;40911;51.552;9.874;2022-07-05T08:24:47;2.65;;;1.75;;
13795;SDS011;40911;51.552;9.874;2022-07-05T08:27:09;3.00;;;1.58;;
13795;SDS011;40911;51.552;9.874;2022-07-05T08:29:31;4.13;;;1.50;;
13795;SDS011;40911;51.552;9.874;2022-07-05T08:31:52;4.68;;;1.90;;
13795;SDS011;40911;51.552;9.874;2022-07-05T08:34:15;2.85;;;1.40;;
13795;SDS011;40911;51.552;9.874;2022-07-05T08:36:39;4.22;;;1.70;;
13795;SDS011;40911;51.552;9.874;2022-07-05T08:39:01;3.10;;;1.42;;
13795;SDS011;40911;51.552;9.874;2022-07-05T08:41:23;6.30;;;1.35;;
13795;SDS011;40911;51.552;9.874;2022-07-05T08:43:46;3.72;;;1.80;;
13795;SDS011;40911;51.552;9.874;2022-07-05T08:46:08;4.55;;;1.48;;
13795;SDS011;40911;51.552;9.874;2022-07-05T08:48:30;3.45;;;1.30;;
13795;SDS011;40911;51.552;9.874;2022-07-05T08:50:54;5.22;;;1.30;;
13795;SDS011;40911;51.552;9.874;2022-07-05T08:53:19;5.35;;;1.70;;
13795;SDS011;40911;51.552;9.874;2022-07-05T08:55:40;2.38;;;1.42;;
13795;SDS011;40911;51.552;9.874;2022-07-05T08:58:02;3.70;;;1.65;;
13795;SDS011;40911;51.552;9.874;2022-07-05T09:00:24;6.10;;;1.63;;
13795;SDS011;40911;51.552;9.874;2022-07-05T09:02:45;4.97;;;1.60;;
13795;SDS011;40911;51.552;9.874;2022-07-05T09:05:07;3.85;;;1.38;;
13795;SDS011;40911;51.552;9.874;2022-07-05T09:07:34;4.95;;;1.70;;
13795;SDS011;40911;51.552;9.874;2022-07-05T09:10:00;3.60;;;1.50;;
13795;SDS011;40911;51.552;9.874;2022-07-05T09:12:23;6.22;;;1.67;;
13795;SDS011;40911;51.552;9.874;2022-07-05T09:14:44;3.67;;;1.58;;
13795;SDS011;40911;51.552;9.874;2022-07-05T09:17:06;6.55;;;1.80;;
13795;SDS011;40911;51.552;9.874;2022-07-05T09:19:27;4.95;;;1.73;;
13795;SDS011;40911;51.552;9.874;2022-07-05T09:21:53;3.20;;;1.60;;
13795;SDS011;40911;51.552;9.874;2022-07-05T09:24:22;3.60;;;1.65;;
13795;SDS011;40911;51.552;9.874;2022-07-05T09:26:45;4.75;;;1.60;;
13795;SDS011;40911;51.552;9.874;2022-07-05T09:29:09;3.58;;;1.58;;
13795;SDS011;40911;51.552;9.874;2022-07-05T09:31:32;2.70;;;1.40;;
13795;SDS011;40911;51.552;9.874;2022-07-05T09:34:05;3.00;;;1.35;;
13795;SDS011;40911;51.552;9.874;2022-07-05T09:36:28;6.18;;;2.38;;
13795;SDS011;40911;51.552;9.874;2022-07-05T09:39:07;5.03;;;1.77;;
13795;SDS011;40911;51.552;9.874;2022-07-05T09:41:28;2.55;;;1.40;;
13795;SDS011;40911;51.552;9.874;2022-07-05T09:43:52;4.72;;;1.70;;
13795;SDS011;40911;51.552;9.874;2022-07-05T09:46:13;4.65;;;1.88;;
13795;SDS011;40911;51.552;9.874;2022-07-05T09:48:35;4.22;;;1.75;;
13795;SDS011;40911;51.552;9.874;2022-07-05T09:51:04;4.70;;;1.58;;
13795;SDS011;40911;51.552;9.874;2022-07-05T09:53:27;4.05;;;1.88;;
13795;SDS011;40911;51.552;9.874;2022-07-05T09:56:06;2.95;;;1.70;;
13795;SDS011;40911;51.552;9.874;2022-07-05T09:58:28;2.85;;;1.80;;
13795;SDS011;40911;51.552;9.874;2022-07-05T10:00:51;2.25;;;1.65;;
13795;SDS011;40911;51.552;9.874;2022-07-05T10:03:13;5.25;;;1.70;;
13795;SDS011;40911;51.552;9.874;2022-07-05T10:05:34;3.70;;;1.50;;
13795;SDS011;40911;51.552;9.874;2022-07-05T10:07:56;6.78;;;1.50;;
13795;SDS011;40911;51.552;9.874;2022-07-05T10:10:19;5.53;;;1.83;;
13795;SDS011;40911;51.552;9.874;2022-07-05T10:12:42;4.35;;;1.60;;
13795;SDS011;40911;51.552;9.874;2022-07-05T10:15:05;2.38;;;1.48;;
13795;SDS011;40911;51.552;9.874;2022-07-05T10:17:33;3.70;;;1.67;;
13795;SDS011;40911;51.552;9.874;2022-07-05T10:19:57;3.17;;;1.60;;
13795;SDS011;40911;51.552;9.874;2022-07-05T10:22:19;3.53;;;1.67;;
13795;SDS011;40911;51.552;9.874;2022-07-05T10:24:41;5.10;;;1.60;;
13795;SDS011;40911;51.552;9.874;2022-07-05T10:27:07;5.47;;;1.70;;
13795;SDS011;40911;51.552;9.874;2022-07-05T10:29:29;3.75;;;1.70;;
13795;SDS011;40911;51.552;9.874;2022-07-05T10:31:51;7.90;;;1.55;;
13795;SDS011;40911;51.552;9.874;2022-07-05T10:34:14;2.40;;;1.70;;
13795;SDS011;40911;51.552;9.874;2022-07-05T10:36:36;3.45;;;1.80;;
13795;SDS011;40911;51.552;9.874;2022-07-05T10:38:58;3.78;;;2.20;;
13795;SDS011;40911;51.552;9.874;2022-07-05T10:41:22;4.47;;;1.77;;
13795;SDS011;40911;51.552;9.874;2022-07-05T10:43:51;2.35;;;1.60;;
13795;SDS011;40911;51.552;9.874;2022-07-05T10:46:14;5.03;;;1.50;;
13795;SDS011;40911;51.552;9.874;2022-07-05T10:49:02;2.90;;;1.50;;
13795;SDS011;40911;51.552;9.874;2022-07-05T10:51:34;4.40;;;1.63;;
13795;SDS011;40911;51.552;9.874;2022-07-05T10:54:00;4.72;;;1.50;;
13795;SDS011;40911;51.552;9.874;2022-07-05T10:56:23;2.75;;;1.50;;
13795;SDS011;40911;51.552;9.874;2022-07-05T10:58:44;1.88;;;1.63;;
13795;SDS011;40911;51.552;9.874;2022-07-05T11:03:54;2.35;;;1.40;;
13795;SDS011;40911;51.552;9.874;2022-07-05T11:06:27;3.00;;;1.40;;
13795;SDS011;40911;51.552;9.874;2022-07-05T11:11:39;4.35;;;1.70;;
13795;SDS011;40911;51.552;9.874;2022-07-05T11:14:02;1.58;;;1.25;;
13795;SDS011;40911;51.552;9.874;2022-07-05T11:16:25;2.67;;;1.55;;
13795;SDS011;40911;51.552;9.874;2022-07-05T11:18:48;4.15;;;1.40;;
13795;SDS011;40911;51.552;9.874;2022-07-05T11:21:15;2.85;;;1.80;;
13795;SDS011;40911;51.552;9.874;2022-07-05T11:23:39;4.35;;;1.67;;
13795;SDS011;40911;51.552;9.874;2022-07-05T11:26:02;3.08;;;1.50;;
13795;SDS011;40911;51.552;9.874;2022-07-05T11:28:24;2.55;;;1.42;;
13795;SDS011;40911;51.552;9.874;2022-07-05T11:30:46;2.22;;;1.52;;
13795;SDS011;40911;51.552;9.874;2022-07-05T11:33:26;3.45;;;1.67;;
13795;SDS011;40911;51.552;9.874;2022-07-05T11:35:57;2.83;;;1.65;;
13795;SDS011;40911;51.552;9.874;2022-07-05T11:38:19;5.18;;;1.50;;
13795;SDS011;40911;51.552;9.874;2022-07-05T11:40:42;2.33;;;1.40;;
13795;SDS011;40911;51.552;9.874;2022-07-05T11:43:05;2.08;;;1.48;;
13795;SDS011;40911;51.552;9.874;2022-07-05T11:45:28;2.67;;;1.33;;
13795;SDS011;40911;51.552;9.874;2022-07-05T11:47:52;3.55;;;1.40;;
13795;SDS011;40911;51.552;9.874;2022-07-05T11:50:15;2.17;;;1.52;;
13795;SDS011;40911;51.552;9.874;2022-07-05T11:52:37;2.25;;;1.30;;
13795;SDS011;40911;51.552;9.874;2022-07-05T11:55:00;2.92;;;1.40;;
13795;SDS011;40911;51.552;9.874;2022-07-05T11:57:24;3.20;;;1.40;;
13795;SDS011;40911;51.552;9.874;2022-07-05T11:59:47;1.38;;;1.17;;
13795;SDS011;40911;51.552;9.874;2022-07-05T12:02:08;1.40;;;1.30;;
13795;SDS011;40911;51.552;9.874;2022-07-05T12:04:30;2.88;;;1.40;;
13795;SDS011;40911;51.552;9.874;2022-07-05T12:06:52;4.20;;;1.40;;
13795;SDS011;40911;51.552;9.874;2022-07-05T12:09:15;2.95;;;1.70;;
13795;SDS011;40911;51.552;9.874;2022-07-05T12:11:48;2.40;;;1.30;;
13795;SDS011;40911;51.552;9.874;2022-07-05T12:14:29;1.88;;;1.50;;
13795;SDS011;40911;51.552;9.874;2022-07-05T12:19:32;3.38;;;1.48;;
13795;SDS011;40911;51.552;9.874;2022-07-05T12:21:57;3.20;;;1.48;;
13795;SDS011;40911;51.552;9.874;2022-07-05T12:24:18;4.40;;;1.58;;
13795;SDS011;40911;51.552;9.874;2022-07-05T12:26:40;2.90;;;1.52;;
13795;SDS011;40911;51.552;9.874;2022-07-05T12:29:02;1.67;;;1.23;;
13795;SDS011;40911;51.552;9.874;2022-07-05T12:31:24;4.30;;;1.70;;
13795;SDS011;40911;51.552;9.874;2022-07-05T12:33:47;5.70;;;1.60;;
13795;SDS011;40911;51.552;9.874;2022-07-05T12:36:13;1.63;;;1.40;;
13795;SDS011;40911;51.552;9.874;2022-07-05T12:38:35;3.13;;;1.50;;
13795;SDS011;40911;51.552;9.874;2022-07-05T12:40:57;2.40;;;1.20;;
13795;SDS011;40911;51.552;9.874;2022-07-05T12:43:19;2.60;;;1.17;;
13795;SDS011;40911;51.552;9.874;2022-07-05T12:45:41;2.13;;;1.50;;
13795;SDS011;40911;51.552;9.874;2022-07-05T12:48:04;3.20;;;1.60;;
13795;SDS011;40911;51.552;9.874;2022-07-05T12:50:30;3.40;;;1.27;;
13795;SDS011;40911;51.552;9.874;2022-07-05T12:53:05;2.25;;;1.45;;
13795;SDS011;40911;51.552;9.874;2022-07-05T12:55:48;4.85;;;1.33;;
13795;SDS011;40911;51.552;9.874;2022-07-05T12:58:27;1.40;;;1.30;;
13795;SDS011;40911;51.552;9.874;2022-07-05T13:00:49;2.13;;;1.10;;
13795;SDS011;40911;51.552;9.874;2022-07-05T13:03:10;1.98;;;1.15;;
13795;SDS011;40911;51.552;9.874;2022-07-05T13:05:33;1.60;;;1.20;;
13795;SDS011;40911;51.552;9.874;2022-07-05T13:07:56;3.15;;;1.58;;
13795;SDS011;40911;51.552;9.874;2022-07-05T13:10:18;4.10;;;1.10;;
13795;SDS011;40911;51.552;9.874;2022-07-05T13:12:41;3.40;;;1.02;;
13795;SDS011;40911;51.552;9.874;2022-07-05T13:15:03;3.88;;;1.10;;
13795;SDS011;40911;51.552;9.874;2022-07-05T13:17:25;1.90;;;1.17;;
13795;SDS011;40911;51.552;9.874;2022-07-05T13:19:47;2.35;;;1.20;;
13795;SDS011;40911;51.552;9.874;2022-07-05T13:22:11;2.47;;;1.20;;
13795;SDS011;40911;51.552;9.874;2022-07-05T13:24:33;4.72;;;1.42;;
13795;SDS011;40911;51.552;9.874;2022-07-05T13:26:55;2.72;;;1.30;;
13795;SDS011;40911;51.552;9.874;2022-07-05T13:29:16;1.83;;;1.10;;
13795;SDS011;40911;51.552;9.874;2022-07-05T13:31:38;3.45;;;1.23;;
13795;SDS011;40911;51.552;9.874;2022-07-05T13:34:00;1.85;;;1.20;;
13795;SDS011;40911;51.552;9.874;2022-07-05T13:36:21;4.50;;;1.25;;
13795;SDS011;40911;51.552;9.874;2022-07-05T13:38:44;3.85;;;1.30;;
13795;SDS011;40911;51.552;9.874;2022-07-05T13:41:06;1.77;;;1.10;;
13795;SDS011;40911;51.552;9.874;2022-07-05T13:43:27;5.35;;;1.00;;
13795;SDS011;40911;51.552;9.874;2022-07-05T13:45:49;1.98;;;1.10;;
13795;SDS011;40911;51.552;9.874;2022-07-05T13:48:10;3.97;;;1.40;;
13795;SDS011;40911;51.552;9.874;2022-07-05T13:50:32;3.15;;;1.20;;
13795;SDS011;40911;51.552;9.874;2022-07-05T13:52:55;2.05;;;0.93;;
13795;SDS011;40911;51.552;9.874;2022-07-05T13:55:18;2.80;;;0.90;;
13795;SDS011;40911;51.552;9.874;2022-07-05T13:57:39;1.85;;;1.08;;
13795;SDS011;40911;51.552;9.874;2022-07-05T14:00:01;1.00;;;0.90;;
13795;SDS011;40911;51.552;9.874;2022-07-05T14:02:23;2.13;;;1.30;;
13795;SDS011;40911;51.552;9.874;2022-07-05T14:04:45;2.22;;;1.10;;
13795;SDS011;40911;51.552;9.874;2022-07-05T14:07:06;2.70;;;1.10;;
13795;SDS011;40911;51.552;9.874;2022-07-05T14:09:28;1.10;;;1.00;;
13795;SDS011;40911;51.552;9.874;2022-07-05T14:11:51;1.77;;;1.05;;
13795;SDS011;40911;51.552;9.874;2022-07-05T14:14:13;2.08;;;1.30;;
13795;SDS011;40911;51.552;9.874;2022-07-05T14:16:35;1.23;;;0.80;;
13795;SDS011;40911;51.552;9.874;2022-07-05T14:18:56;2.13;;;0.98;;
13795;SDS011;40911;51.552;9.874;2022-07-05T14:21:18;4.20;;;1.23;;
13795;SDS011;40911;51.552;9.874;2022-07-05T14:23:40;1.85;;;1.15;;
13795;SDS011;40911;51.552;9.874;2022-07-05T14:26:02;5.75;;;1.35;;
13795;SDS011;40911;51.552;9.874;2022-07-05T14:28:25;1.63;;;1.08;;
13795;SDS011;40911;51.552;9.874;2022-07-05T14:30:46;2.30;;;1.25;;
13795;SDS011;40911;51.552;9.874;2022-07-05T14:33:08;6.20;;;1.30;;
13795;SDS011;40911;51.552;9.874;2022-07-05T14:35:30;2.88;;;1.58;;
13795;SDS011;40911;51.552;9.874;2022-07-05T14:37:52;2.90;;;1.70;;
13795;SDS011;40911;51.552;9.874;2022-07-05T14:40:14;6.57;;;2.03;;
13795;SDS011;40911;51.552;9.874;2022-07-05T14:42:36;5.40;;;2.30;;
13795;SDS011;40911;51.552;9.874;2022-07-05T14:44:59;2.95;;;2.20;;
13795;SDS011;40911;51.552;9.874;2022-07-05T14:47:20;5.95;;;2.90;;
13795;SDS011;40911;51.552;9.874;2022-07-05T14:49:42;2.50;;;2.30;;
13795;SDS011;40911;51.552;9.874;2022-07-05T14:52:04;3.80;;;2.13;;
13795;SDS011;40911;51.552;9.874;2022-07-05T14:54:26;5.47;;;2.33;;
13795;SDS011;40911;51.552;9.874;2022-07-05T14:56:48;2.75;;;1.70;;
13795;SDS011;40911;51.552;9.874;2022-07-05T14:59:09;3.42;;;1.60;;
13795;SDS011;40911;51.552;9.874;2022-07-05T15:01:32;2.65;;;1.40;;
13795;SDS011;40911;51.552;9.874;2022-07-05T15:03:54;2.63;;;1.40;;
13795;SDS011;40911;51.552;9.874;2022-07-05T15:06:15;3.45;;;1.10;;
13795;SDS011;40911;51.552;9.874;2022-07-05T15:08:37;4.57;;;1.27;;
13795;SDS011;40911;51.552;9.874;2022-07-05T15:10:59;3.38;;;1.30;;
13795;SDS011;40911;51.552;9.874;2022-07-05T15:13:20;2.65;;;1.10;;
13795;SDS011;40911;51.552;9.874;2022-07-05T15:15:45;1.88;;;1.20;;
13795;SDS011;40911;51.552;9.874;2022-07-05T15:18:08;3.33;;;1.08;;
13795;SDS011;40911;51.552;9.874;2022-07-05T15:20:30;1.00;;;0.90;;
13795;SDS011;40911;51.552;9.874;2022-07-05T15:22:51;2.75;;;1.10;;
13795;SDS011;40911;51.552;9.874;2022-07-05T15:25:13;3.38;;;1.13;;
13795;SDS011;40911;51.552;9.874;2022-07-05T15:27:34;5.22;;;2.78;;
13795;SDS011;40911;51.552;9.874;2022-07-05T15:29:56;3.00;;;2.45;;
13795;SDS011;40911;51.552;9.874;2022-07-05T15:32:18;5.22;;;1.20;;
13795;SDS011;40911;51.552;9.874;2022-07-05T15:34:41;2.67;;;1.00;;
13795;SDS011;40911;51.552;9.874;2022-07-05T15:37:03;1.27;;;1.17;;
13795;SDS011;40911;51.552;9.874;2022-07-05T15:39:25;2.22;;;0.90;;
13795;SDS011;40911;51.552;9.874;2022-07-05T15:41:47;1.35;;;0.90;;
13795;SDS011;40911;51.552;9.874;2022-07-05T15:44:08;1.40;;;0.90;;
13795;SDS011;40911;51.552;9.874;2022-07-05T15:46:30;2.30;;;1.23;;
13795;SDS011;40911;51.552;9.874;2022-07-05T15:49:06;2.53;;;1.52;;
13795;SDS011;40911;51.552;9.874;2022-07-05T15:51:29;1.48;;;1.15;;
13795;SDS011;40911;51.552;9.874;2022-07-05T15:53:50;2.67;;;1.10;;